sensor_id;sensor_type;location;lat;lon;timestamp;P1;durP1;ratioP1;P2;durP2;ratioP2
26181;SDS011;13927;51.534;11.866;2023-01-09T00:01:18;8.20;;;6.10;;
26181;SDS011;13927;51.534;11.866;2023-01-09T00:03:50;7.07;;;5.60;;
26181;SDS011;13927;51.534;11.866;2023-01-09T00:06:16;8.55;;;6.90;;
26181;SDS011;13927;51.534;11.866;2023-01-09T00:08:41;9.35;;;7.03;;
26181;SDS011;13927;51.534;11.866;2023-01-09T00:11:07;10.82;;;7.38;;
26181;SDS011;13927;51.534;11.866;2023-01-09T00:13:33;8.27;;;6.75;;
26181;SDS011;13927;51.534;11.866;2023-01-09T00:15:59;9.50;;;7.18;;
26181;SDS011;13927;51.534;11.866;2023-01-09T00:18:25;8.50;;;6.82;;
26181;SDS011;13927;51.534;11.866;2023-01-09T00:20:51;8.82;;;6.65;;
26181;SDS011;13927;51.534;11.866;2023-01-09T00:23:17;9.88;;;7.63;;
26181;SDS011;13927;51.534;11.866;2023-01-09T00:25:42;11.57;;;8.80;;
26181;SDS011;13927;51.534;11.866;2023-01-09T00:28:08;11.85;;;8.35;;
26181;SDS011;13927;51.534;11.866;2023-01-09T00:30:34;11.90;;;9.23;;
26181;SDS011;13927;51.534;11.866;2023-01-09T00:33:00;12.07;;;9.65;;
26181;SDS011;13927;51.534;11.866;2023-01-09T00:35:26;14.07;;;9.88;;
26181;SDS011;13927;51.534;11.866;2023-01-09T00:37:52;11.50;;;10.30;;
26181;SDS011;13927;51.534;11.866;2023-01-09T00:40:18;14.98;;;11.10;;
26181;SDS011;13927;51.534;11.866;2023-01-09T00:42:45;12.30;;;9.98;;
26181;SDS011;13927;51.534;11.866;2023-01-09T00:45:19;14.05;;;10.60;;
26181;SDS011;13927;51.534;11.866;2023-01-09T00:47:52;13.63;;;11.00;;
26181;SDS011;13927;51.534;11.866;2023-01-09T00:50:26;16.95;;;11.77;;
26181;SDS011;13927;51.534;11.866;2023-01-09T00:52:56;13.20;;;10.43;;
26181;SDS011;13927;51.534;11.866;2023-01-09T00:55:29;14.90;;;11.65;;
26181;SDS011;13927;51.534;11.866;2023-01-09T00:57:55;14.40;;;11.90;;
26181;SDS011;13927;51.534;11.866;2023-01-09T01:00:21;15.38;;;12.40;;
26181;SDS011;13927;51.534;11.866;2023-01-09T01:02:47;16.90;;;12.10;;
26181;SDS011;13927;51.534;11.866;2023-01-09T01:05:12;16.65;;;12.75;;
26181;SDS011;13927;51.534;11.866;2023-01-09T01:07:57;16.17;;;12.38;;
26181;SDS011;13927;51.534;11.866;2023-01-09T01:10:23;14.82;;;12.93;;
26181;SDS011;13927;51.534;11.866;2023-01-09T01:12:51;15.70;;;12.30;;
26181;SDS011;13927;51.534;11.866;2023-01-09T01:15:17;15.27;;;12.82;;
26181;SDS011;13927;51.534;11.866;2023-01-09T01:17:44;16.05;;;12.43;;
26181;SDS011;13927;51.534;11.866;2023-01-09T01:20:12;16.02;;;12.68;;
26181;SDS011;13927;51.534;11.866;2023-01-09T01:22:41;18.02;;;13.18;;
26181;SDS011;13927;51.534;11.866;2023-01-09T01:25:07;15.68;;;12.68;;
26181;SDS011;13927;51.534;11.866;2023-01-09T01:27:35;14.68;;;12.75;;
26181;SDS011;13927;51.534;11.866;2023-01-09T01:30:00;14.52;;;11.60;;
26181;SDS011;13927;51.534;11.866;2023-01-09T01:32:26;13.73;;;11.18;;
26181;SDS011;13927;51.534;11.866;2023-01-09T01:34:52;14.38;;;11.82;;
26181;SDS011;13927;51.534;11.866;2023-01-09T01:37:18;14.73;;;12.20;;
26181;SDS011;13927;51.534;11.866;2023-01-09T01:39:45;14.90;;;11.50;;
26181;SDS011;13927;51.534;11.866;2023-01-09T01:42:12;14.13;;;11.98;;
26181;SDS011;13927;51.534;11.866;2023-01-09T01:50:30;15.35;;;11.00;;
26181;SDS011;13927;51.534;11.866;2023-01-09T01:58:35;13.85;;;11.27;;
26181;SDS011;13927;51.534;11.866;2023-01-09T02:01:10;14.90;;;11.90;;
26181;SDS011;13927;51.534;11.866;2023-01-09T02:03:36;13.50;;;11.75;;
26181;SDS011;13927;51.534;11.866;2023-01-09T02:06:05;13.45;;;11.35;;
26181;SDS011;13927;51.534;11.866;2023-01-09T02:08:32;13.35;;;11.05;;
26181;SDS011;13927;51.534;11.866;2023-01-09T02:10:58;14.95;;;10.82;;
26181;SDS011;13927;51.534;11.866;2023-01-09T02:13:25;13.73;;;11.07;;
26181;SDS011;13927;51.534;11.866;2023-01-09T02:16:00;12.70;;;10.48;;
26181;SDS011;13927;51.534;11.866;2023-01-09T02:27:56;11.45;;;9.73;;
26181;SDS011;13927;51.534;11.866;2023-01-09T02:30:31;12.85;;;9.10;;
26181;SDS011;13927;51.534;11.866;2023-01-09T02:33:19;11.50;;;9.50;;
26181;SDS011;13927;51.534;11.866;2023-01-09T02:39:03;12.23;;;9.88;;
26181;SDS011;13927;51.534;11.866;2023-01-09T02:41:37;12.48;;;9.95;;
26181;SDS011;13927;51.534;11.866;2023-01-09T02:44:20;13.98;;;10.40;;
26181;SDS011;13927;51.534;11.866;2023-01-09T02:47:02;12.10;;;9.82;;
26181;SDS011;13927;51.534;11.866;2023-01-09T02:49:52;12.13;;;10.23;;
26181;SDS011;13927;51.534;11.866;2023-01-09T03:00:26;13.82;;;11.18;;
26181;SDS011;13927;51.534;11.866;2023-01-09T03:06:34;12.43;;;10.38;;
26181;SDS011;13927;51.534;11.866;2023-01-09T03:09:19;12.68;;;9.98;;
26181;SDS011;13927;51.534;11.866;2023-01-09T03:11:51;14.23;;;11.15;;
26181;SDS011;13927;51.534;11.866;2023-01-09T03:14:33;16.77;;;10.98;;
26181;SDS011;13927;51.534;11.866;2023-01-09T03:17:03;14.35;;;11.60;;
26181;SDS011;13927;51.534;11.866;2023-01-09T03:19:32;15.50;;;11.82;;
26181;SDS011;13927;51.534;11.866;2023-01-09T03:21:59;14.93;;;11.10;;
26181;SDS011;13927;51.534;11.866;2023-01-09T03:24:26;14.40;;;10.10;;
26181;SDS011;13927;51.534;11.866;2023-01-09T03:26:51;14.60;;;10.55;;
26181;SDS011;13927;51.534;11.866;2023-01-09T03:29:20;15.55;;;11.88;;
26181;SDS011;13927;51.534;11.866;2023-01-09T03:31:46;14.05;;;11.27;;
26181;SDS011;13927;51.534;11.866;2023-01-09T03:34:11;15.07;;;10.18;;
26181;SDS011;13927;51.534;11.866;2023-01-09T03:36:37;16.45;;;10.15;;
26181;SDS011;13927;51.534;11.866;2023-01-09T03:39:03;15.45;;;10.48;;
26181;SDS011;13927;51.534;11.866;2023-01-09T03:41:28;14.18;;;10.07;;
26181;SDS011;13927;51.534;11.866;2023-01-09T03:43:54;14.25;;;10.60;;
26181;SDS011;13927;51.534;11.866;2023-01-09T03:46:20;14.32;;;10.77;;
26181;SDS011;13927;51.534;11.866;2023-01-09T03:48:45;13.27;;;9.70;;
26181;SDS011;13927;51.534;11.866;2023-01-09T03:51:11;12.10;;;8.88;;
26181;SDS011;13927;51.534;11.866;2023-01-09T03:53:37;15.15;;;10.30;;
26181;SDS011;13927;51.534;11.866;2023-01-09T03:56:03;15.70;;;9.60;;
26181;SDS011;13927;51.534;11.866;2023-01-09T03:58:28;13.27;;;9.75;;
26181;SDS011;13927;51.534;11.866;2023-01-09T04:00:58;15.05;;;10.20;;
26181;SDS011;13927;51.534;11.866;2023-01-09T04:03:26;13.27;;;9.10;;
26181;SDS011;13927;51.534;11.866;2023-01-09T04:05:52;12.70;;;9.85;;
26181;SDS011;13927;51.534;11.866;2023-01-09T04:08:18;15.18;;;10.50;;
26181;SDS011;13927;51.534;11.866;2023-01-09T04:10:44;16.67;;;11.70;;
26181;SDS011;13927;51.534;11.866;2023-01-09T04:13:12;15.25;;;10.45;;
26181;SDS011;13927;51.534;11.866;2023-01-09T04:15:38;15.48;;;11.93;;
26181;SDS011;13927;51.534;11.866;2023-01-09T04:18:04;15.27;;;11.00;;
26181;SDS011;13927;51.534;11.866;2023-01-09T04:20:30;20.63;;;11.85;;
26181;SDS011;13927;51.534;11.866;2023-01-09T04:22:56;16.08;;;11.57;;
26181;SDS011;13927;51.534;11.866;2023-01-09T04:25:23;15.23;;;11.68;;
26181;SDS011;13927;51.534;11.866;2023-01-09T04:27:49;17.75;;;11.85;;
26181;SDS011;13927;51.534;11.866;2023-01-09T04:30:15;18.30;;;12.50;;
26181;SDS011;13927;51.534;11.866;2023-01-09T04:32:41;17.40;;;11.48;;
26181;SDS011;13927;51.534;11.866;2023-01-09T04:35:07;15.07;;;10.23;;
26181;SDS011;13927;51.534;11.866;2023-01-09T04:37:34;15.48;;;10.98;;
26181;SDS011;13927;51.534;11.866;2023-01-09T04:40:03;15.30;;;10.48;;
26181;SDS011;13927;51.534;11.866;2023-01-09T04:42:34;15.15;;;9.98;;
26181;SDS011;13927;51.534;11.866;2023-01-09T04:45:04;16.27;;;10.98;;
26181;SDS011;13927;51.534;11.866;2023-01-09T04:47:30;12.95;;;10.00;;
26181;SDS011;13927;51.534;11.866;2023-01-09T04:49:57;13.57;;;10.15;;
26181;SDS011;13927;51.534;11.866;2023-01-09T04:52:23;14.07;;;10.02;;
26181;SDS011;13927;51.534;11.866;2023-01-09T04:54:49;13.63;;;9.13;;
26181;SDS011;13927;51.534;11.866;2023-01-09T04:57:15;15.05;;;11.13;;
26181;SDS011;13927;51.534;11.866;2023-01-09T04:59:41;15.48;;;10.65;;
26181;SDS011;13927;51.534;11.866;2023-01-09T05:02:06;15.98;;;10.80;;
26181;SDS011;13927;51.534;11.866;2023-01-09T05:04:32;13.27;;;10.63;;
26181;SDS011;13927;51.534;11.866;2023-01-09T05:06:58;14.77;;;11.00;;
26181;SDS011;13927;51.534;11.866;2023-01-09T05:09:24;15.15;;;10.65;;
26181;SDS011;13927;51.534;11.866;2023-01-09T05:11:50;14.90;;;11.43;;
26181;SDS011;13927;51.534;11.866;2023-01-09T05:14:16;14.63;;;11.00;;
26181;SDS011;13927;51.534;11.866;2023-01-09T05:16:41;14.70;;;11.18;;
26181;SDS011;13927;51.534;11.866;2023-01-09T05:19:07;14.60;;;10.73;;
26181;SDS011;13927;51.534;11.866;2023-01-09T05:21:33;15.95;;;11.45;;
26181;SDS011;13927;51.534;11.866;2023-01-09T05:23:58;15.57;;;11.00;;
26181;SDS011;13927;51.534;11.866;2023-01-09T05:26:24;14.68;;;10.65;;
26181;SDS011;13927;51.534;11.866;2023-01-09T05:28:50;15.55;;;11.38;;
26181;SDS011;13927;51.534;11.866;2023-01-09T05:31:17;19.05;;;11.82;;
26181;SDS011;13927;51.534;11.866;2023-01-09T05:33:44;14.00;;;10.50;;
26181;SDS011;13927;51.534;11.866;2023-01-09T05:36:10;15.55;;;10.73;;
26181;SDS011;13927;51.534;11.866;2023-01-09T05:38:35;14.65;;;10.68;;
26181;SDS011;13927;51.534;11.866;2023-01-09T05:41:01;13.95;;;10.60;;
26181;SDS011;13927;51.534;11.866;2023-01-09T05:43:27;13.50;;;10.30;;
26181;SDS011;13927;51.534;11.866;2023-01-09T05:45:53;13.95;;;10.80;;
26181;SDS011;13927;51.534;11.866;2023-01-09T05:48:18;15.57;;;10.55;;
26181;SDS011;13927;51.534;11.866;2023-01-09T05:50:44;16.13;;;10.93;;
26181;SDS011;13927;51.534;11.866;2023-01-09T05:53:10;13.93;;;10.40;;
26181;SDS011;13927;51.534;11.866;2023-01-09T05:55:35;14.30;;;10.35;;
26181;SDS011;13927;51.534;11.866;2023-01-09T05:58:01;14.45;;;10.43;;
26181;SDS011;13927;51.534;11.866;2023-01-09T06:00:27;14.77;;;10.77;;
26181;SDS011;13927;51.534;11.866;2023-01-09T06:02:52;15.10;;;11.18;;
26181;SDS011;13927;51.534;11.866;2023-01-09T06:05:18;13.80;;;10.55;;
26181;SDS011;13927;51.534;11.866;2023-01-09T06:07:44;15.20;;;10.90;;
26181;SDS011;13927;51.534;11.866;2023-01-09T06:10:10;15.02;;;10.50;;
26181;SDS011;13927;51.534;11.866;2023-01-09T06:12:38;16.05;;;11.15;;
26181;SDS011;13927;51.534;11.866;2023-01-09T06:15:04;16.88;;;11.30;;
26181;SDS011;13927;51.534;11.866;2023-01-09T06:17:30;17.63;;;11.43;;
26181;SDS011;13927;51.534;11.866;2023-01-09T06:19:56;15.00;;;10.90;;
26181;SDS011;13927;51.534;11.866;2023-01-09T06:22:22;14.88;;;11.13;;
26181;SDS011;13927;51.534;11.866;2023-01-09T06:24:47;15.25;;;11.38;;
26181;SDS011;13927;51.534;11.866;2023-01-09T06:27:13;17.13;;;10.82;;
26181;SDS011;13927;51.534;11.866;2023-01-09T06:29:39;14.02;;;10.57;;
26181;SDS011;13927;51.534;11.866;2023-01-09T06:32:05;14.82;;;10.80;;
26181;SDS011;13927;51.534;11.866;2023-01-09T06:34:30;13.40;;;10.35;;
26181;SDS011;13927;51.534;11.866;2023-01-09T06:36:56;17.10;;;11.45;;
26181;SDS011;13927;51.534;11.866;2023-01-09T06:39:22;15.02;;;10.70;;
26181;SDS011;13927;51.534;11.866;2023-01-09T06:41:47;12.75;;;10.50;;
26181;SDS011;13927;51.534;11.866;2023-01-09T06:44:13;12.52;;;9.98;;
26181;SDS011;13927;51.534;11.866;2023-01-09T06:46:39;13.93;;;9.52;;
26181;SDS011;13927;51.534;11.866;2023-01-09T06:49:05;15.35;;;11.00;;
26181;SDS011;13927;51.534;11.866;2023-01-09T06:51:30;14.85;;;10.32;;
26181;SDS011;13927;51.534;11.866;2023-01-09T06:53:56;15.10;;;10.07;;
26181;SDS011;13927;51.534;11.866;2023-01-09T06:56:22;13.00;;;9.52;;
26181;SDS011;13927;51.534;11.866;2023-01-09T06:58:47;13.77;;;9.25;;
26181;SDS011;13927;51.534;11.866;2023-01-09T07:01:13;12.15;;;8.63;;
26181;SDS011;13927;51.534;11.866;2023-01-09T07:03:39;12.05;;;8.77;;
26181;SDS011;13927;51.534;11.866;2023-01-09T07:06:05;13.32;;;9.35;;
26181;SDS011;13927;51.534;11.866;2023-01-09T07:08:31;12.80;;;8.88;;
26181;SDS011;13927;51.534;11.866;2023-01-09T07:10:58;11.55;;;8.80;;
26181;SDS011;13927;51.534;11.866;2023-01-09T07:13:23;14.27;;;8.68;;
26181;SDS011;13927;51.534;11.866;2023-01-09T07:15:49;10.40;;;8.30;;
26181;SDS011;13927;51.534;11.866;2023-01-09T07:18:17;10.07;;;8.27;;
26181;SDS011;13927;51.534;11.866;2023-01-09T07:20:43;11.07;;;8.48;;
26181;SDS011;13927;51.534;11.866;2023-01-09T07:23:12;11.65;;;8.90;;
26181;SDS011;13927;51.534;11.866;2023-01-09T07:25:40;11.43;;;8.43;;
26181;SDS011;13927;51.534;11.866;2023-01-09T07:28:06;11.32;;;8.40;;
26181;SDS011;13927;51.534;11.866;2023-01-09T07:30:32;12.60;;;8.15;;
26181;SDS011;13927;51.534;11.866;2023-01-09T07:32:58;9.73;;;7.30;;
26181;SDS011;13927;51.534;11.866;2023-01-09T07:35:23;11.63;;;7.43;;
26181;SDS011;13927;51.534;11.866;2023-01-09T07:37:49;9.40;;;7.22;;
26181;SDS011;13927;51.534;11.866;2023-01-09T07:40:15;9.52;;;7.15;;
26181;SDS011;13927;51.534;11.866;2023-01-09T07:42:41;9.27;;;6.25;;
26181;SDS011;13927;51.534;11.866;2023-01-09T07:45:06;10.40;;;6.47;;
26181;SDS011;13927;51.534;11.866;2023-01-09T07:47:33;8.93;;;6.35;;
26181;SDS011;13927;51.534;11.866;2023-01-09T07:49:58;7.57;;;6.13;;
26181;SDS011;13927;51.534;11.866;2023-01-09T07:52:24;6.32;;;4.85;;
26181;SDS011;13927;51.534;11.866;2023-01-09T07:54:51;5.93;;;4.55;;
26181;SDS011;13927;51.534;11.866;2023-01-09T07:57:17;5.47;;;4.28;;
26181;SDS011;13927;51.534;11.866;2023-01-09T07:59:43;5.63;;;4.50;;
26181;SDS011;13927;51.534;11.866;2023-01-09T08:02:09;7.20;;;4.93;;
26181;SDS011;13927;51.534;11.866;2023-01-09T08:04:34;7.03;;;4.88;;
26181;SDS011;13927;51.534;11.866;2023-01-09T08:07:00;5.35;;;4.13;;
26181;SDS011;13927;51.534;11.866;2023-01-09T08:09:27;6.05;;;4.28;;
26181;SDS011;13927;51.534;11.866;2023-01-09T08:11:53;5.43;;;4.05;;
26181;SDS011;13927;51.534;11.866;2023-01-09T08:14:21;5.78;;;5.03;;
26181;SDS011;13927;51.534;11.866;2023-01-09T08:16:47;5.75;;;4.53;;
26181;SDS011;13927;51.534;11.866;2023-01-09T08:19:13;7.75;;;4.00;;
26181;SDS011;13927;51.534;11.866;2023-01-09T08:21:39;6.13;;;4.38;;
26181;SDS011;13927;51.534;11.866;2023-01-09T08:24:05;6.05;;;4.22;;
26181;SDS011;13927;51.534;11.866;2023-01-09T08:26:31;7.95;;;4.13;;
26181;SDS011;13927;51.534;11.866;2023-01-09T08:28:57;5.32;;;4.53;;
26181;SDS011;13927;51.534;11.866;2023-01-09T08:31:22;4.80;;;3.85;;
26181;SDS011;13927;51.534;11.866;2023-01-09T08:33:48;4.95;;;3.85;;
26181;SDS011;13927;51.534;11.866;2023-01-09T08:36:14;5.88;;;3.78;;
26181;SDS011;13927;51.534;11.866;2023-01-09T08:38:40;4.43;;;3.60;;
26181;SDS011;13927;51.534;11.866;2023-01-09T08:41:05;6.55;;;3.70;;
26181;SDS011;13927;51.534;11.866;2023-01-09T08:43:50;4.63;;;3.60;;
26181;SDS011;13927;51.534;11.866;2023-01-09T08:46:34;4.55;;;3.65;;
26181;SDS011;13927;51.534;11.866;2023-01-09T08:49:18;6.50;;;3.47;;
26181;SDS011;13927;51.534;11.866;2023-01-09T08:51:44;4.85;;;3.50;;
26181;SDS011;13927;51.534;11.866;2023-01-09T08:54:10;4.47;;;3.45;;
26181;SDS011;13927;51.534;11.866;2023-01-09T08:56:37;4.13;;;3.28;;
26181;SDS011;13927;51.534;11.866;2023-01-09T08:59:02;4.40;;;3.40;;
26181;SDS011;13927;51.534;11.866;2023-01-09T09:01:28;4.63;;;3.22;;
26181;SDS011;13927;51.534;11.866;2023-01-09T09:03:54;4.53;;;2.63;;
26181;SDS011;13927;51.534;11.866;2023-01-09T09:06:19;3.90;;;2.85;;
26181;SDS011;13927;51.534;11.866;2023-01-09T09:08:45;4.18;;;2.70;;
26181;SDS011;13927;51.534;11.866;2023-01-09T09:11:11;2.83;;;2.15;;
26181;SDS011;13927;51.534;11.866;2023-01-09T09:13:37;3.85;;;2.53;;
26181;SDS011;13927;51.534;11.866;2023-01-09T09:16:03;2.53;;;2.00;;
26181;SDS011;13927;51.534;11.866;2023-01-09T09:18:29;3.15;;;1.90;;
26181;SDS011;13927;51.534;11.866;2023-01-09T09:20:55;2.33;;;1.52;;
26181;SDS011;13927;51.534;11.866;2023-01-09T09:23:20;2.53;;;1.35;;
26181;SDS011;13927;51.534;11.866;2023-01-09T09:25:47;1.90;;;1.40;;
26181;SDS011;13927;51.534;11.866;2023-01-09T09:28:13;1.90;;;1.30;;
26181;SDS011;13927;51.534;11.866;2023-01-09T09:30:39;1.75;;;1.23;;
26181;SDS011;13927;51.534;11.866;2023-01-09T09:33:05;1.88;;;1.02;;
26181;SDS011;13927;51.534;11.866;2023-01-09T09:35:31;2.10;;;0.90;;
26181;SDS011;13927;51.534;11.866;2023-01-09T09:37:59;1.30;;;1.10;;
26181;SDS011;13927;51.534;11.866;2023-01-09T09:40:33;1.35;;;0.95;;
26181;SDS011;13927;51.534;11.866;2023-01-09T09:47:49;1.23;;;1.00;;
26181;SDS011;13927;51.534;11.866;2023-01-09T09:53:12;1.40;;;0.90;;
26181;SDS011;13927;51.534;11.866;2023-01-09T09:55:53;1.15;;;0.73;;
26181;SDS011;13927;51.534;11.866;2023-01-09T10:00:53;1.33;;;0.82;;
26181;SDS011;13927;51.534;11.866;2023-01-09T10:09:21;2.45;;;0.70;;
26181;SDS011;13927;51.534;11.866;2023-01-09T10:15:15;1.58;;;0.60;;
26181;SDS011;13927;51.534;11.866;2023-01-09T10:18:20;0.80;;;0.50;;
26181;SDS011;13927;51.534;11.866;2023-01-09T10:21:28;1.38;;;0.60;;
26181;SDS011;13927;51.534;11.866;2023-01-09T10:26:51;1.27;;;0.60;;
26181;SDS011;13927;51.534;11.866;2023-01-09T10:35:50;0.77;;;0.45;;
26181;SDS011;13927;51.534;11.866;2023-01-09T10:38:40;2.10;;;0.60;;
26181;SDS011;13927;51.534;11.866;2023-01-09T10:43:48;0.88;;;0.50;;
26181;SDS011;13927;51.534;11.866;2023-01-09T10:46:23;2.30;;;0.60;;
26181;SDS011;13927;51.534;11.866;2023-01-09T10:52:10;2.88;;;0.60;;
26181;SDS011;13927;51.534;11.866;2023-01-09T10:54:39;1.45;;;0.52;;
26181;SDS011;13927;51.534;11.866;2023-01-09T10:57:30;1.10;;;0.40;;
26181;SDS011;13927;51.534;11.866;2023-01-09T11:00:19;2.42;;;0.80;;
26181;SDS011;13927;51.534;11.866;2023-01-09T11:02:47;1.13;;;0.50;;
26181;SDS011;13927;51.534;11.866;2023-01-09T11:05:14;1.85;;;0.60;;
26181;SDS011;13927;51.534;11.866;2023-01-09T11:08:03;1.67;;;0.60;;
26181;SDS011;13927;51.534;11.866;2023-01-09T11:13:20;1.30;;;0.45;;
26181;SDS011;13927;51.534;11.866;2023-01-09T11:16:01;7.07;;;2.95;;
26181;SDS011;13927;51.534;11.866;2023-01-09T11:18:57;1.67;;;0.70;;
26181;SDS011;13927;51.534;11.866;2023-01-09T11:26:44;1.15;;;0.50;;
26181;SDS011;13927;51.534;11.866;2023-01-09T11:29:18;2.35;;;0.57;;
26181;SDS011;13927;51.534;11.866;2023-01-09T11:31:50;3.45;;;0.90;;
26181;SDS011;13927;51.534;11.866;2023-01-09T11:34:21;2.75;;;0.70;;
26181;SDS011;13927;51.534;11.866;2023-01-09T11:36:50;2.47;;;0.77;;
26181;SDS011;13927;51.534;11.866;2023-01-09T11:39:25;1.40;;;0.52;;
26181;SDS011;13927;51.534;11.866;2023-01-09T11:41:57;1.67;;;0.60;;
26181;SDS011;13927;51.534;11.866;2023-01-09T11:44:25;1.10;;;0.50;;
26181;SDS011;13927;51.534;11.866;2023-01-09T11:46:52;0.98;;;0.50;;
26181;SDS011;13927;51.534;11.866;2023-01-09T11:49:20;1.65;;;0.60;;
26181;SDS011;13927;51.534;11.866;2023-01-09T11:57:24;3.38;;;0.70;;
26181;SDS011;13927;51.534;11.866;2023-01-09T11:59:51;2.42;;;0.68;;
26181;SDS011;13927;51.534;11.866;2023-01-09T12:02:25;2.10;;;0.70;;
26181;SDS011;13927;51.534;11.866;2023-01-09T12:08:26;1.95;;;0.40;;
26181;SDS011;13927;51.534;11.866;2023-01-09T12:19:47;1.77;;;0.50;;
26181;SDS011;13927;51.534;11.866;2023-01-09T12:22:31;1.83;;;0.50;;
26181;SDS011;13927;51.534;11.866;2023-01-09T12:25:39;1.17;;;0.60;;
26181;SDS011;13927;51.534;11.866;2023-01-09T12:43:17;1.00;;;0.40;;
26181;SDS011;13927;51.534;11.866;2023-01-09T12:46:22;1.20;;;0.50;;
26181;SDS011;13927;51.534;11.866;2023-01-09T12:49:07;2.90;;;0.60;;
26181;SDS011;13927;51.534;11.866;2023-01-09T12:57:33;1.70;;;0.40;;
26181;SDS011;13927;51.534;11.866;2023-01-09T13:06:16;2.88;;;0.85;;
26181;SDS011;13927;51.534;11.866;2023-01-09T13:08:53;0.60;;;0.35;;
26181;SDS011;13927;51.534;11.866;2023-01-09T13:11:46;2.28;;;0.52;;
26181;SDS011;13927;51.534;11.866;2023-01-09T13:14:29;0.90;;;0.40;;
26181;SDS011;13927;51.534;11.866;2023-01-09T13:17:18;1.23;;;0.50;;
26181;SDS011;13927;51.534;11.866;2023-01-09T13:19:55;2.60;;;0.50;;
26181;SDS011;13927;51.534;11.866;2023-01-09T13:22:22;1.17;;;0.60;;
26181;SDS011;13927;51.534;11.866;2023-01-09T13:27:42;0.47;;;0.40;;
26181;SDS011;13927;51.534;11.866;2023-01-09T13:30:31;1.17;;;0.60;;
26181;SDS011;13927;51.534;11.866;2023-01-09T13:33:22;0.90;;;0.60;;
26181;SDS011;13927;51.534;11.866;2023-01-09T13:35:56;1.48;;;0.50;;
26181;SDS011;13927;51.534;11.866;2023-01-09T13:38:24;1.67;;;0.90;;
26181;SDS011;13927;51.534;11.866;2023-01-09T13:41:00;0.82;;;0.47;;
26181;SDS011;13927;51.534;11.866;2023-01-09T13:43:52;1.73;;;0.47;;
26181;SDS011;13927;51.534;11.866;2023-01-09T13:46:34;3.03;;;0.55;;
26181;SDS011;13927;51.534;11.866;2023-01-09T13:57:36;1.65;;;0.38;;
26181;SDS011;13927;51.534;11.866;2023-01-09T14:05:15;1.52;;;0.52;;
26181;SDS011;13927;51.534;11.866;2023-01-09T14:08:04;0.73;;;0.57;;
26181;SDS011;13927;51.534;11.866;2023-01-09T14:13:27;2.90;;;0.50;;
26181;SDS011;13927;51.534;11.866;2023-01-09T14:16:22;1.83;;;0.60;;
26181;SDS011;13927;51.534;11.866;2023-01-09T14:21:25;2.03;;;0.45;;
26181;SDS011;13927;51.534;11.866;2023-01-09T14:23:56;3.22;;;0.70;;
26181;SDS011;13927;51.534;11.866;2023-01-09T14:26:43;1.10;;;0.45;;
26181;SDS011;13927;51.534;11.866;2023-01-09T14:37:22;2.38;;;0.88;;
26181;SDS011;13927;51.534;11.866;2023-01-09T14:39:50;1.70;;;0.50;;
26181;SDS011;13927;51.534;11.866;2023-01-09T14:42:20;1.17;;;0.45;;
26181;SDS011;13927;51.534;11.866;2023-01-09T14:45:01;2.15;;;0.85;;
26181;SDS011;13927;51.534;11.866;2023-01-09T14:50:03;1.27;;;0.50;;
26181;SDS011;13927;51.534;11.866;2023-01-09T14:55:52;1.13;;;0.60;;
26181;SDS011;13927;51.534;11.866;2023-01-09T15:00:48;1.00;;;0.60;;
26181;SDS011;13927;51.534;11.866;2023-01-09T15:03:18;2.58;;;0.82;;
26181;SDS011;13927;51.534;11.866;2023-01-09T15:05:45;1.50;;;0.50;;
26181;SDS011;13927;51.534;11.866;2023-01-09T15:08:16;1.17;;;0.52;;
26181;SDS011;13927;51.534;11.866;2023-01-09T15:10:47;1.20;;;0.60;;
26181;SDS011;13927;51.534;11.866;2023-01-09T15:13:17;1.20;;;0.60;;
26181;SDS011;13927;51.534;11.866;2023-01-09T15:15:55;1.20;;;0.50;;
26181;SDS011;13927;51.534;11.866;2023-01-09T15:18:23;1.90;;;0.60;;
26181;SDS011;13927;51.534;11.866;2023-01-09T15:20:54;2.05;;;0.55;;
26181;SDS011;13927;51.534;11.866;2023-01-09T15:23:26;2.03;;;0.60;;
26181;SDS011;13927;51.534;11.866;2023-01-09T15:25:54;0.98;;;0.68;;
26181;SDS011;13927;51.534;11.866;2023-01-09T15:28:59;2.08;;;1.02;;
26181;SDS011;13927;51.534;11.866;2023-01-09T15:31:29;1.27;;;0.70;;
26181;SDS011;13927;51.534;11.866;2023-01-09T15:33:54;1.65;;;0.70;;
26181;SDS011;13927;51.534;11.866;2023-01-09T15:36:22;2.58;;;1.13;;
26181;SDS011;13927;51.534;11.866;2023-01-09T15:38:51;4.75;;;0.60;;
26181;SDS011;13927;51.534;11.866;2023-01-09T15:41:19;1.30;;;0.68;;
26181;SDS011;13927;51.534;11.866;2023-01-09T15:44:20;1.90;;;0.75;;
26181;SDS011;13927;51.534;11.866;2023-01-09T15:46:50;1.48;;;0.52;;
26181;SDS011;13927;51.534;11.866;2023-01-09T15:49:16;2.17;;;0.68;;
26181;SDS011;13927;51.534;11.866;2023-01-09T15:51:44;1.27;;;0.70;;
26181;SDS011;13927;51.534;11.866;2023-01-09T15:54:15;2.17;;;0.57;;
26181;SDS011;13927;51.534;11.866;2023-01-09T15:56:47;0.75;;;0.60;;
26181;SDS011;13927;51.534;11.866;2023-01-09T15:59:23;2.55;;;0.80;;
26181;SDS011;13927;51.534;11.866;2023-01-09T16:01:55;1.25;;;0.80;;
26181;SDS011;13927;51.534;11.866;2023-01-09T16:04:44;1.30;;;0.80;;
26181;SDS011;13927;51.534;11.866;2023-01-09T16:07:17;0.98;;;0.70;;
26181;SDS011;13927;51.534;11.866;2023-01-09T16:09:45;1.52;;;0.40;;
26181;SDS011;13927;51.534;11.866;2023-01-09T16:12:17;4.13;;;0.70;;
26181;SDS011;13927;51.534;11.866;2023-01-09T16:14:53;3.53;;;0.95;;
26181;SDS011;13927;51.534;11.866;2023-01-09T16:17:22;0.90;;;0.60;;
26181;SDS011;13927;51.534;11.866;2023-01-09T16:19:51;1.40;;;0.88;;
26181;SDS011;13927;51.534;11.866;2023-01-09T16:22:23;1.38;;;0.70;;
26181;SDS011;13927;51.534;11.866;2023-01-09T16:25:21;1.13;;;0.70;;
26181;SDS011;13927;51.534;11.866;2023-01-09T16:28:15;1.33;;;1.00;;
26181;SDS011;13927;51.534;11.866;2023-01-09T16:30:55;2.20;;;0.93;;
26181;SDS011;13927;51.534;11.866;2023-01-09T16:33:25;2.05;;;0.95;;
26181;SDS011;13927;51.534;11.866;2023-01-09T16:35:53;2.72;;;1.10;;
26181;SDS011;13927;51.534;11.866;2023-01-09T16:38:20;1.80;;;0.98;;
26181;SDS011;13927;51.534;11.866;2023-01-09T16:43:48;1.20;;;0.90;;
26181;SDS011;13927;51.534;11.866;2023-01-09T16:46:15;2.20;;;1.35;;
26181;SDS011;13927;51.534;11.866;2023-01-09T16:48:44;1.63;;;0.85;;
26181;SDS011;13927;51.534;11.866;2023-01-09T16:51:12;1.70;;;1.00;;
26181;SDS011;13927;51.534;11.866;2023-01-09T16:53:44;2.15;;;0.88;;
26181;SDS011;13927;51.534;11.866;2023-01-09T16:56:12;1.67;;;0.85;;
26181;SDS011;13927;51.534;11.866;2023-01-09T16:58:41;1.88;;;1.10;;
26181;SDS011;13927;51.534;11.866;2023-01-09T17:01:07;0.70;;;0.70;;
26181;SDS011;13927;51.534;11.866;2023-01-09T17:03:34;1.60;;;0.90;;
26181;SDS011;13927;51.534;11.866;2023-01-09T17:06:01;1.48;;;0.82;;
26181;SDS011;13927;51.534;11.866;2023-01-09T17:08:29;2.13;;;1.20;;
26181;SDS011;13927;51.534;11.866;2023-01-09T17:11:00;2.17;;;1.08;;
26181;SDS011;13927;51.534;11.866;2023-01-09T17:13:25;1.75;;;1.10;;
26181;SDS011;13927;51.534;11.866;2023-01-09T17:15:52;1.42;;;0.80;;
26181;SDS011;13927;51.534;11.866;2023-01-09T17:18:20;2.33;;;1.00;;
26181;SDS011;13927;51.534;11.866;2023-01-09T17:20:51;1.80;;;1.10;;
26181;SDS011;13927;51.534;11.866;2023-01-09T17:23:20;2.97;;;1.25;;
26181;SDS011;13927;51.534;11.866;2023-01-09T17:25:49;1.60;;;0.90;;